sensor_id;sensor_type;location;lat;lon;timestamp;P1;durP1;ratioP1;P2;durP2;ratioP2
59040;SDS011;44825;53.200;6.448;2023-08-17T00:01:51;5.85;;;3.08;;
59040;SDS011;44825;53.200;6.448;2023-08-17T00:04:18;5.32;;;2.75;;
59040;SDS011;44825;53.200;6.448;2023-08-17T00:06:44;7.07;;;3.30;;
59040;SDS011;44825;53.200;6.448;2023-08-17T00:09:11;7.32;;;3.17;;
59040;SDS011;44825;53.200;6.448;2023-08-17T00:11:38;8.65;;;2.90;;
59040;SDS011;44825;53.200;6.448;2023-08-17T00:14:04;8.55;;;2.92;;
59040;SDS011;44825;53.200;6.448;2023-08-17T00:16:31;7.57;;;2.92;;
59040;SDS011;44825;53.200;6.448;2023-08-17T00:18:57;6.13;;;2.70;;
59040;SDS011;44825;53.200;6.448;2023-08-17T00:21:23;7.40;;;3.45;;
59040;SDS011;44825;53.200;6.448;2023-08-17T00:23:49;10.77;;;3.17;;
59040;SDS011;44825;53.200;6.448;2023-08-17T00:26:15;7.38;;;2.53;;
59040;SDS011;44825;53.200;6.448;2023-08-17T00:28:42;7.95;;;2.90;;
59040;SDS011;44825;53.200;6.448;2023-08-17T00:31:08;6.43;;;2.70;;
59040;SDS011;44825;53.200;6.448;2023-08-17T00:33:34;7.00;;;3.20;;
59040;SDS011;44825;53.200;6.448;2023-08-17T00:36:00;7.50;;;2.88;;
59040;SDS011;44825;53.200;6.448;2023-08-17T00:38:26;10.57;;;3.05;;
59040;SDS011;44825;53.200;6.448;2023-08-17T00:40:52;6.28;;;2.50;;
59040;SDS011;44825;53.200;6.448;2023-08-17T00:43:19;5.03;;;2.03;;
59040;SDS011;44825;53.200;6.448;2023-08-17T00:45:45;5.60;;;2.17;;
59040;SDS011;44825;53.200;6.448;2023-08-17T00:48:12;6.10;;;2.90;;
59040;SDS011;44825;53.200;6.448;2023-08-17T00:50:38;6.15;;;2.85;;
59040;SDS011;44825;53.200;6.448;2023-08-17T00:53:05;7.95;;;2.90;;
59040;SDS011;44825;53.200;6.448;2023-08-17T00:55:32;6.72;;;2.67;;
59040;SDS011;44825;53.200;6.448;2023-08-17T00:57:58;7.50;;;2.95;;
59040;SDS011;44825;53.200;6.448;2023-08-17T01:00:25;6.85;;;2.80;;
59040;SDS011;44825;53.200;6.448;2023-08-17T01:02:54;8.35;;;2.45;;
59040;SDS011;44825;53.200;6.448;2023-08-17T01:05:21;8.00;;;2.70;;
59040;SDS011;44825;53.200;6.448;2023-08-17T01:07:47;9.02;;;2.72;;
59040;SDS011;44825;53.200;6.448;2023-08-17T01:10:13;9.88;;;3.40;;
59040;SDS011;44825;53.200;6.448;2023-08-17T01:15:27;6.90;;;3.00;;
59040;SDS011;44825;53.200;6.448;2023-08-17T01:17:58;5.75;;;3.03;;
59040;SDS011;44825;53.200;6.448;2023-08-17T01:20:25;5.30;;;2.40;;
59040;SDS011;44825;53.200;6.448;2023-08-17T01:22:52;6.10;;;2.85;;
59040;SDS011;44825;53.200;6.448;2023-08-17T01:25:22;7.03;;;2.58;;
59040;SDS011;44825;53.200;6.448;2023-08-17T01:27:48;8.75;;;3.30;;
59040;SDS011;44825;53.200;6.448;2023-08-17T01:30:15;7.78;;;3.28;;
59040;SDS011;44825;53.200;6.448;2023-08-17T01:35:14;5.78;;;2.90;;
59040;SDS011;44825;53.200;6.448;2023-08-17T01:37:41;6.28;;;3.03;;
59040;SDS011;44825;53.200;6.448;2023-08-17T01:40:08;5.95;;;2.55;;
59040;SDS011;44825;53.200;6.448;2023-08-17T01:42:36;8.65;;;2.75;;
59040;SDS011;44825;53.200;6.448;2023-08-17T01:45:02;7.93;;;3.15;;
59040;SDS011;44825;53.200;6.448;2023-08-17T01:47:29;6.65;;;3.53;;
59040;SDS011;44825;53.200;6.448;2023-08-17T01:49:55;6.30;;;2.90;;
59040;SDS011;44825;53.200;6.448;2023-08-17T01:52:25;7.00;;;3.00;;
59040;SDS011;44825;53.200;6.448;2023-08-17T01:54:52;7.65;;;3.10;;
59040;SDS011;44825;53.200;6.448;2023-08-17T01:57:18;10.38;;;2.95;;
59040;SDS011;44825;53.200;6.448;2023-08-17T01:59:44;7.18;;;3.22;;
59040;SDS011;44825;53.200;6.448;2023-08-17T02:02:10;6.22;;;2.65;;
59040;SDS011;44825;53.200;6.448;2023-08-17T02:04:39;5.95;;;2.97;;
59040;SDS011;44825;53.200;6.448;2023-08-17T02:07:05;6.85;;;2.53;;
59040;SDS011;44825;53.200;6.448;2023-08-17T02:09:31;7.72;;;2.88;;
59040;SDS011;44825;53.200;6.448;2023-08-17T02:11:57;7.65;;;2.75;;
59040;SDS011;44825;53.200;6.448;2023-08-17T02:14:23;6.30;;;2.83;;
59040;SDS011;44825;53.200;6.448;2023-08-17T02:16:49;8.65;;;2.67;;
59040;SDS011;44825;53.200;6.448;2023-08-17T02:19:15;6.47;;;2.60;;
59040;SDS011;44825;53.200;6.448;2023-08-17T02:21:41;8.98;;;2.47;;
59040;SDS011;44825;53.200;6.448;2023-08-17T02:24:07;5.90;;;2.83;;
59040;SDS011;44825;53.200;6.448;2023-08-17T02:26:33;5.88;;;2.55;;
59040;SDS011;44825;53.200;6.448;2023-08-17T02:29:00;6.55;;;2.53;;
59040;SDS011;44825;53.200;6.448;2023-08-17T02:31:26;4.78;;;2.50;;
59040;SDS011;44825;53.200;6.448;2023-08-17T02:33:52;6.68;;;2.90;;
59040;SDS011;44825;53.200;6.448;2023-08-17T02:36:18;8.18;;;2.58;;
59040;SDS011;44825;53.200;6.448;2023-08-17T02:38:44;5.95;;;2.65;;
59040;SDS011;44825;53.200;6.448;2023-08-17T02:41:10;4.82;;;2.80;;
59040;SDS011;44825;53.200;6.448;2023-08-17T02:43:36;12.80;;;3.28;;
59040;SDS011;44825;53.200;6.448;2023-08-17T02:46:02;8.02;;;3.08;;
59040;SDS011;44825;53.200;6.448;2023-08-17T02:48:29;6.25;;;2.55;;
59040;SDS011;44825;53.200;6.448;2023-08-17T02:50:55;7.28;;;3.28;;
59040;SDS011;44825;53.200;6.448;2023-08-17T02:53:21;7.32;;;2.90;;
59040;SDS011;44825;53.200;6.448;2023-08-17T02:55:48;10.77;;;2.75;;
59040;SDS011;44825;53.200;6.448;2023-08-17T02:58:14;5.90;;;2.55;;
59040;SDS011;44825;53.200;6.448;2023-08-17T03:00:40;6.72;;;2.90;;
59040;SDS011;44825;53.200;6.448;2023-08-17T03:03:06;8.65;;;2.70;;
59040;SDS011;44825;53.200;6.448;2023-08-17T03:05:33;7.88;;;2.97;;
59040;SDS011;44825;53.200;6.448;2023-08-17T03:07:59;8.82;;;3.22;;
59040;SDS011;44825;53.200;6.448;2023-08-17T03:10:25;8.55;;;3.00;;
59040;SDS011;44825;53.200;6.448;2023-08-17T03:12:51;8.25;;;2.85;;
59040;SDS011;44825;53.200;6.448;2023-08-17T03:15:17;8.45;;;2.97;;
59040;SDS011;44825;53.200;6.448;2023-08-17T03:17:43;7.38;;;2.67;;
59040;SDS011;44825;53.200;6.448;2023-08-17T03:20:09;9.70;;;3.80;;
59040;SDS011;44825;53.200;6.448;2023-08-17T03:22:35;9.65;;;3.20;;
59040;SDS011;44825;53.200;6.448;2023-08-17T03:25:01;5.93;;;2.83;;
59040;SDS011;44825;53.200;6.448;2023-08-17T03:27:27;5.22;;;2.47;;
59040;SDS011;44825;53.200;6.448;2023-08-17T03:29:54;5.95;;;2.67;;
59040;SDS011;44825;53.200;6.448;2023-08-17T03:32:20;6.28;;;2.63;;
59040;SDS011;44825;53.200;6.448;2023-08-17T03:34:46;6.53;;;2.85;;
59040;SDS011;44825;53.200;6.448;2023-08-17T03:37:12;6.32;;;2.58;;
59040;SDS011;44825;53.200;6.448;2023-08-17T03:39:38;11.35;;;2.78;;
59040;SDS011;44825;53.200;6.448;2023-08-17T03:42:04;5.85;;;2.47;;
59040;SDS011;44825;53.200;6.448;2023-08-17T03:44:30;5.68;;;2.47;;
59040;SDS011;44825;53.200;6.448;2023-08-17T03:46:56;8.55;;;2.58;;
59040;SDS011;44825;53.200;6.448;2023-08-17T03:49:22;6.55;;;2.38;;
59040;SDS011;44825;53.200;6.448;2023-08-17T03:51:48;5.85;;;2.22;;
59040;SDS011;44825;53.200;6.448;2023-08-17T03:54:14;6.18;;;1.98;;
59040;SDS011;44825;53.200;6.448;2023-08-17T03:56:40;7.07;;;3.00;;
59040;SDS011;44825;53.200;6.448;2023-08-17T03:59:06;5.85;;;2.30;;
59040;SDS011;44825;53.200;6.448;2023-08-17T04:01:33;5.72;;;2.17;;
59040;SDS011;44825;53.200;6.448;2023-08-17T04:03:59;4.47;;;2.20;;
59040;SDS011;44825;53.200;6.448;2023-08-17T04:06:25;5.68;;;2.40;;
59040;SDS011;44825;53.200;6.448;2023-08-17T04:08:51;7.50;;;2.70;;
59040;SDS011;44825;53.200;6.448;2023-08-17T04:11:17;7.05;;;2.03;;
59040;SDS011;44825;53.200;6.448;2023-08-17T04:13:43;5.50;;;1.90;;
59040;SDS011;44825;53.200;6.448;2023-08-17T04:16:09;8.10;;;2.50;;
59040;SDS011;44825;53.200;6.448;2023-08-17T04:18:35;8.02;;;2.88;;
59040;SDS011;44825;53.200;6.448;2023-08-17T04:21:01;7.28;;;2.70;;
59040;SDS011;44825;53.200;6.448;2023-08-17T04:23:27;5.63;;;2.28;;
59040;SDS011;44825;53.200;6.448;2023-08-17T04:25:53;9.63;;;2.38;;
59040;SDS011;44825;53.200;6.448;2023-08-17T04:28:20;7.82;;;2.30;;
59040;SDS011;44825;53.200;6.448;2023-08-17T04:30:46;8.00;;;2.08;;
59040;SDS011;44825;53.200;6.448;2023-08-17T04:33:12;6.47;;;2.15;;
59040;SDS011;44825;53.200;6.448;2023-08-17T04:35:38;3.85;;;1.98;;
59040;SDS011;44825;53.200;6.448;2023-08-17T04:38:05;6.65;;;2.33;;
59040;SDS011;44825;53.200;6.448;2023-08-17T04:40:31;6.70;;;1.98;;
59040;SDS011;44825;53.200;6.448;2023-08-17T04:42:57;4.50;;;2.00;;
59040;SDS011;44825;53.200;6.448;2023-08-17T04:45:23;6.72;;;1.98;;
59040;SDS011;44825;53.200;6.448;2023-08-17T04:47:49;7.85;;;2.72;;
59040;SDS011;44825;53.200;6.448;2023-08-17T04:50:15;5.88;;;2.20;;
59040;SDS011;44825;53.200;6.448;2023-08-17T04:52:44;9.40;;;2.58;;
59040;SDS011;44825;53.200;6.448;2023-08-17T04:55:13;7.25;;;2.50;;
59040;SDS011;44825;53.200;6.448;2023-08-17T04:57:39;5.65;;;2.17;;
59040;SDS011;44825;53.200;6.448;2023-08-17T05:00:05;6.68;;;2.45;;
59040;SDS011;44825;53.200;6.448;2023-08-17T05:02:35;6.65;;;2.72;;
59040;SDS011;44825;53.200;6.448;2023-08-17T05:05:02;6.15;;;2.50;;
59040;SDS011;44825;53.200;6.448;2023-08-17T05:07:28;4.80;;;2.33;;
59040;SDS011;44825;53.200;6.448;2023-08-17T05:09:54;8.45;;;2.65;;
59040;SDS011;44825;53.200;6.448;2023-08-17T05:12:21;8.15;;;2.30;;
59040;SDS011;44825;53.200;6.448;2023-08-17T05:14:47;7.28;;;2.20;;
59040;SDS011;44825;53.200;6.448;2023-08-17T05:17:13;6.95;;;2.05;;
59040;SDS011;44825;53.200;6.448;2023-08-17T05:19:39;5.32;;;2.30;;
59040;SDS011;44825;53.200;6.448;2023-08-17T05:22:09;5.35;;;2.08;;
59040;SDS011;44825;53.200;6.448;2023-08-17T05:24:36;6.15;;;2.05;;
59040;SDS011;44825;53.200;6.448;2023-08-17T05:27:02;8.23;;;1.80;;
59040;SDS011;44825;53.200;6.448;2023-08-17T05:29:28;5.75;;;2.22;;
59040;SDS011;44825;53.200;6.448;2023-08-17T05:31:54;6.22;;;2.00;;
59040;SDS011;44825;53.200;6.448;2023-08-17T05:34:20;10.18;;;2.05;;
59040;SDS011;44825;53.200;6.448;2023-08-17T05:36:46;5.90;;;2.25;;
59040;SDS011;44825;53.200;6.448;2023-08-17T05:39:12;7.25;;;1.80;;
59040;SDS011;44825;53.200;6.448;2023-08-17T05:41:38;4.75;;;1.60;;
59040;SDS011;44825;53.200;6.448;2023-08-17T05:44:04;6.50;;;2.25;;
59040;SDS011;44825;53.200;6.448;2023-08-17T05:46:32;6.95;;;1.65;;
59040;SDS011;44825;53.200;6.448;2023-08-17T05:48:58;6.03;;;1.85;;
59040;SDS011;44825;53.200;6.448;2023-08-17T05:51:24;4.03;;;1.65;;
59040;SDS011;44825;53.200;6.448;2023-08-17T05:53:50;9.57;;;2.03;;
59040;SDS011;44825;53.200;6.448;2023-08-17T05:56:16;8.05;;;2.30;;
59040;SDS011;44825;53.200;6.448;2023-08-17T05:58:42;5.75;;;1.60;;
59040;SDS011;44825;53.200;6.448;2023-08-17T06:01:09;5.07;;;1.80;;
59040;SDS011;44825;53.200;6.448;2023-08-17T06:03:36;6.47;;;1.65;;
59040;SDS011;44825;53.200;6.448;2023-08-17T06:06:05;6.55;;;2.20;;
59040;SDS011;44825;53.200;6.448;2023-08-17T06:08:32;8.15;;;2.13;;
59040;SDS011;44825;53.200;6.448;2023-08-17T06:10:58;4.97;;;1.73;;
59040;SDS011;44825;53.200;6.448;2023-08-17T06:13:24;7.15;;;1.80;;
59040;SDS011;44825;53.200;6.448;2023-08-17T06:15:50;9.02;;;1.90;;
59040;SDS011;44825;53.200;6.448;2023-08-17T06:18:16;7.75;;;1.77;;
59040;SDS011;44825;53.200;6.448;2023-08-17T06:20:42;4.20;;;1.38;;
59040;SDS011;44825;53.200;6.448;2023-08-17T06:23:11;9.40;;;2.45;;
59040;SDS011;44825;53.200;6.448;2023-08-17T06:25:37;5.38;;;1.90;;
59040;SDS011;44825;53.200;6.448;2023-08-17T06:28:05;4.13;;;1.58;;
59040;SDS011;44825;53.200;6.448;2023-08-17T06:30:31;3.75;;;1.52;;
59040;SDS011;44825;53.200;6.448;2023-08-17T06:33:00;5.07;;;1.65;;
59040;SDS011;44825;53.200;6.448;2023-08-17T06:35:26;5.57;;;1.80;;
59040;SDS011;44825;53.200;6.448;2023-08-17T06:37:52;6.97;;;1.73;;
59040;SDS011;44825;53.200;6.448;2023-08-17T06:40:21;5.32;;;1.55;;
59040;SDS011;44825;53.200;6.448;2023-08-17T06:42:47;5.13;;;1.70;;
59040;SDS011;44825;53.200;6.448;2023-08-17T06:45:13;6.95;;;2.00;;
59040;SDS011;44825;53.200;6.448;2023-08-17T06:47:43;4.55;;;1.50;;
59040;SDS011;44825;53.200;6.448;2023-08-17T06:50:10;4.95;;;1.67;;
59040;SDS011;44825;53.200;6.448;2023-08-17T06:52:36;5.07;;;1.33;;
59040;SDS011;44825;53.200;6.448;2023-08-17T06:55:02;5.00;;;1.88;;
59040;SDS011;44825;53.200;6.448;2023-08-17T06:57:28;8.15;;;1.73;;
59040;SDS011;44825;53.200;6.448;2023-08-17T06:59:54;4.07;;;1.60;;
59040;SDS011;44825;53.200;6.448;2023-08-17T07:02:21;5.32;;;1.40;;
59040;SDS011;44825;53.200;6.448;2023-08-17T07:04:47;5.25;;;1.45;;
59040;SDS011;44825;53.200;6.448;2023-08-17T07:07:13;7.18;;;2.00;;
59040;SDS011;44825;53.200;6.448;2023-08-17T07:09:40;7.00;;;1.60;;
59040;SDS011;44825;53.200;6.448;2023-08-17T07:12:06;7.35;;;1.20;;
59040;SDS011;44825;53.200;6.448;2023-08-17T07:14:32;5.95;;;1.30;;
59040;SDS011;44825;53.200;6.448;2023-08-17T07:16:59;4.88;;;1.50;;
59040;SDS011;44825;53.200;6.448;2023-08-17T07:19:29;9.30;;;1.50;;
59040;SDS011;44825;53.200;6.448;2023-08-17T07:21:55;8.27;;;1.65;;
59040;SDS011;44825;53.200;6.448;2023-08-17T07:24:21;4.15;;;1.30;;
59040;SDS011;44825;53.200;6.448;2023-08-17T07:26:48;2.30;;;0.95;;
59040;SDS011;44825;53.200;6.448;2023-08-17T07:29:14;7.70;;;1.70;;
59040;SDS011;44825;53.200;6.448;2023-08-17T07:31:40;9.77;;;1.65;;
59040;SDS011;44825;53.200;6.448;2023-08-17T07:34:06;4.35;;;0.90;;
59040;SDS011;44825;53.200;6.448;2023-08-17T07:36:33;4.60;;;1.00;;
59040;SDS011;44825;53.200;6.448;2023-08-17T07:39:01;5.70;;;1.50;;
59040;SDS011;44825;53.200;6.448;2023-08-17T07:41:29;4.68;;;1.33;;
59040;SDS011;44825;53.200;6.448;2023-08-17T07:43:55;6.20;;;1.30;;
59040;SDS011;44825;53.200;6.448;2023-08-17T07:46:21;5.13;;;1.75;;
59040;SDS011;44825;53.200;6.448;2023-08-17T07:48:47;4.47;;;1.45;;
59040;SDS011;44825;53.200;6.448;2023-08-17T07:51:14;3.63;;;1.13;;
59040;SDS011;44825;53.200;6.448;2023-08-17T07:53:40;7.93;;;1.80;;
59040;SDS011;44825;53.200;6.448;2023-08-17T07:56:06;4.22;;;1.10;;
59040;SDS011;44825;53.200;6.448;2023-08-17T07:58:32;4.90;;;1.40;;
59040;SDS011;44825;53.200;6.448;2023-08-17T08:00:58;4.55;;;1.13;;
59040;SDS011;44825;53.200;6.448;2023-08-17T08:03:24;8.48;;;1.40;;
59040;SDS011;44825;53.200;6.448;2023-08-17T08:05:50;4.88;;;1.10;;
59040;SDS011;44825;53.200;6.448;2023-08-17T08:08:16;3.55;;;1.10;;
59040;SDS011;44825;53.200;6.448;2023-08-17T08:10:43;2.33;;;1.00;;
59040;SDS011;44825;53.200;6.448;2023-08-17T08:13:09;6.28;;;1.20;;
59040;SDS011;44825;53.200;6.448;2023-08-17T08:15:35;3.63;;;1.17;;
59040;SDS011;44825;53.200;6.448;2023-08-17T08:18:01;5.72;;;1.35;;
59040;SDS011;44825;53.200;6.448;2023-08-17T08:20:27;10.82;;;1.73;;
59040;SDS011;44825;53.200;6.448;2023-08-17T08:22:53;6.18;;;1.35;;
59040;SDS011;44825;53.200;6.448;2023-08-17T08:25:19;4.15;;;1.10;;
59040;SDS011;44825;53.200;6.448;2023-08-17T08:27:45;5.15;;;1.35;;
59040;SDS011;44825;53.200;6.448;2023-08-17T08:30:11;5.40;;;1.27;;
59040;SDS011;44825;53.200;6.448;2023-08-17T08:32:37;6.00;;;1.27;;
59040;SDS011;44825;53.200;6.448;2023-08-17T08:35:04;4.32;;;1.17;;
59040;SDS011;44825;53.200;6.448;2023-08-17T08:37:30;3.78;;;1.10;;
59040;SDS011;44825;53.200;6.448;2023-08-17T08:39:56;3.92;;;0.90;;
59040;SDS011;44825;53.200;6.448;2023-08-17T08:42:22;2.60;;;0.80;;
59040;SDS011;44825;53.200;6.448;2023-08-17T08:44:49;3.75;;;1.23;;
59040;SDS011;44825;53.200;6.448;2023-08-17T08:47:16;3.72;;;0.90;;
59040;SDS011;44825;53.200;6.448;2023-08-17T08:52:22;6.72;;;1.15;;
59040;SDS011;44825;53.200;6.448;2023-08-17T08:54:49;4.97;;;1.58;;
59040;SDS011;44825;53.200;6.448;2023-08-17T08:57:18;4.90;;;1.20;;
59040;SDS011;44825;53.200;6.448;2023-08-17T08:59:45;3.33;;;1.05;;
59040;SDS011;44825;53.200;6.448;2023-08-17T09:02:14;3.60;;;1.05;;
59040;SDS011;44825;53.200;6.448;2023-08-17T09:04:44;3.65;;;0.85;;
59040;SDS011;44825;53.200;6.448;2023-08-17T09:07:14;6.28;;;1.58;;
59040;SDS011;44825;53.200;6.448;2023-08-17T09:09:40;6.88;;;1.30;;
59040;SDS011;44825;53.200;6.448;2023-08-17T09:12:06;5.82;;;1.92;;
59040;SDS011;44825;53.200;6.448;2023-08-17T09:14:34;4.53;;;1.10;;
59040;SDS011;44825;53.200;6.448;2023-08-17T09:17:02;3.92;;;1.00;;
59040;SDS011;44825;53.200;6.448;2023-08-17T09:19:28;5.63;;;1.35;;
59040;SDS011;44825;53.200;6.448;2023-08-17T09:21:54;2.17;;;0.95;;
59040;SDS011;44825;53.200;6.448;2023-08-17T09:24:20;4.40;;;1.20;;
59040;SDS011;44825;53.200;6.448;2023-08-17T09:26:47;2.92;;;0.80;;
59040;SDS011;44825;53.200;6.448;2023-08-17T09:29:17;5.50;;;1.13;;
59040;SDS011;44825;53.200;6.448;2023-08-17T09:31:43;3.28;;;1.25;;
59040;SDS011;44825;53.200;6.448;2023-08-17T09:34:10;3.20;;;1.02;;
59040;SDS011;44825;53.200;6.448;2023-08-17T09:36:36;6.03;;;1.20;;
59040;SDS011;44825;53.200;6.448;2023-08-17T09:39:02;5.15;;;1.63;;
59040;SDS011;44825;53.200;6.448;2023-08-17T09:41:28;5.07;;;1.40;;
59040;SDS011;44825;53.200;6.448;2023-08-17T09:43:54;4.30;;;1.00;;
59040;SDS011;44825;53.200;6.448;2023-08-17T09:46:21;5.80;;;1.50;;
59040;SDS011;44825;53.200;6.448;2023-08-17T09:48:48;3.35;;;1.10;;
59040;SDS011;44825;53.200;6.448;2023-08-17T09:51:15;11.63;;;1.85;;
59040;SDS011;44825;53.200;6.448;2023-08-17T09:53:41;5.43;;;1.10;;
59040;SDS011;44825;53.200;6.448;2023-08-17T09:56:07;4.05;;;1.17;;
59040;SDS011;44825;53.200;6.448;2023-08-17T09:58:36;4.70;;;1.48;;
59040;SDS011;44825;53.200;6.448;2023-08-17T10:01:05;5.40;;;1.25;;
59040;SDS011;44825;53.200;6.448;2023-08-17T10:03:32;3.55;;;1.05;;
59040;SDS011;44825;53.200;6.448;2023-08-17T10:06:01;3.13;;;0.93;;
59040;SDS011;44825;53.200;6.448;2023-08-17T10:08:30;5.88;;;1.00;;
59040;SDS011;44825;53.200;6.448;2023-08-17T10:10:57;4.32;;;1.00;;
59040;SDS011;44825;53.200;6.448;2023-08-17T10:13:28;8.90;;;1.70;;
59040;SDS011;44825;53.200;6.448;2023-08-17T10:18:33;4.15;;;1.20;;
59040;SDS011;44825;53.200;6.448;2023-08-17T10:21:01;5.10;;;1.33;;
59040;SDS011;44825;53.200;6.448;2023-08-17T10:23:29;4.30;;;1.05;;
59040;SDS011;44825;53.200;6.448;2023-08-17T10:25:55;4.35;;;0.95;;
59040;SDS011;44825;53.200;6.448;2023-08-17T10:28:22;5.32;;;1.27;;
59040;SDS011;44825;53.200;6.448;2023-08-17T10:30:48;6.32;;;1.50;;
59040;SDS011;44825;53.200;6.448;2023-08-17T10:33:15;3.67;;;1.00;;
59040;SDS011;44825;53.200;6.448;2023-08-17T10:35:41;6.15;;;1.42;;
59040;SDS011;44825;53.200;6.448;2023-08-17T10:38:08;5.72;;;1.10;;
59040;SDS011;44825;53.200;6.448;2023-08-17T10:40:35;4.18;;;1.25;;
59040;SDS011;44825;53.200;6.448;2023-08-17T10:43:01;6.50;;;1.67;;
59040;SDS011;44825;53.200;6.448;2023-08-17T10:45:28;7.43;;;1.33;;
59040;SDS011;44825;53.200;6.448;2023-08-17T10:50:33;5.18;;;1.48;;
59040;SDS011;44825;53.200;6.448;2023-08-17T10:53:03;6.75;;;1.30;;
59040;SDS011;44825;53.200;6.448;2023-08-17T10:55:40;5.10;;;1.10;;
59040;SDS011;44825;53.200;6.448;2023-08-17T10:58:06;6.95;;;1.30;;
59040;SDS011;44825;53.200;6.448;2023-08-17T11:00:40;7.13;;;1.20;;
59040;SDS011;44825;53.200;6.448;2023-08-17T11:03:10;7.13;;;2.05;;
59040;SDS011;44825;53.200;6.448;2023-08-17T11:08:19;4.43;;;1.10;;
59040;SDS011;44825;53.200;6.448;2023-08-17T11:13:31;6.70;;;1.20;;
59040;SDS011;44825;53.200;6.448;2023-08-17T11:15:58;4.68;;;1.10;;
59040;SDS011;44825;53.200;6.448;2023-08-17T11:18:24;6.20;;;1.30;;
59040;SDS011;44825;53.200;6.448;2023-08-17T11:20:51;6.45;;;1.60;;
59040;SDS011;44825;53.200;6.448;2023-08-17T11:23:17;8.68;;;1.77;;
59040;SDS011;44825;53.200;6.448;2023-08-17T11:25:44;6.22;;;1.85;;
59040;SDS011;44825;53.200;6.448;2023-08-17T11:28:10;4.38;;;1.25;;
59040;SDS011;44825;53.200;6.448;2023-08-17T11:30:36;3.50;;;1.23;;
59040;SDS011;44825;53.200;6.448;2023-08-17T11:33:04;5.00;;;1.38;;
59040;SDS011;44825;53.200;6.448;2023-08-17T11:35:30;4.68;;;1.50;;
59040;SDS011;44825;53.200;6.448;2023-08-17T11:37:56;4.55;;;1.23;;
59040;SDS011;44825;53.200;6.448;2023-08-17T11:40:23;9.00;;;1.77;;
59040;SDS011;44825;53.200;6.448;2023-08-17T11:42:49;5.85;;;1.27;;
59040;SDS011;44825;53.200;6.448;2023-08-17T11:45:15;6.45;;;1.80;;
59040;SDS011;44825;53.200;6.448;2023-08-17T11:47:41;6.13;;;1.60;;
59040;SDS011;44825;53.200;6.448;2023-08-17T11:50:09;3.78;;;1.65;;
59040;SDS011;44825;53.200;6.448;2023-08-17T11:52:35;4.75;;;1.35;;
59040;SDS011;44825;53.200;6.448;2023-08-17T11:55:05;6.15;;;1.50;;
59040;SDS011;44825;53.200;6.448;2023-08-17T11:57:31;7.60;;;1.83;;
59040;SDS011;44825;53.200;6.448;2023-08-17T11:59:58;6.28;;;1.27;;
59040;SDS011;44825;53.200;6.448;2023-08-17T12:02:25;9.00;;;1.70;;
59040;SDS011;44825;53.200;6.448;2023-08-17T12:04:51;7.05;;;1.65;;
59040;SDS011;44825;53.200;6.448;2023-08-17T12:07:18;6.95;;;1.80;;
59040;SDS011;44825;53.200;6.448;2023-08-17T12:09:45;4.07;;;1.40;;
59040;SDS011;44825;53.200;6.448;2023-08-17T12:12:11;5.10;;;1.67;;
59040;SDS011;44825;53.200;6.448;2023-08-17T12:14:41;6.25;;;2.10;;
59040;SDS011;44825;53.200;6.448;2023-08-17T12:17:08;6.53;;;1.67;;
59040;SDS011;44825;53.200;6.448;2023-08-17T12:19:39;8.88;;;1.92;;
59040;SDS011;44825;53.200;6.448;2023-08-17T12:22:05;5.28;;;1.52;;
59040;SDS011;44825;53.200;6.448;2023-08-17T12:24:31;7.88;;;1.70;;
59040;SDS011;44825;53.200;6.448;2023-08-17T12:26:59;4.28;;;1.50;;
59040;SDS011;44825;53.200;6.448;2023-08-17T12:29:25;5.38;;;1.50;;
59040;SDS011;44825;53.200;6.448;2023-08-17T12:31:51;7.78;;;1.77;;
59040;SDS011;44825;53.200;6.448;2023-08-17T12:34:17;4.38;;;1.50;;
59040;SDS011;44825;53.200;6.448;2023-08-17T12:36:43;5.32;;;1.80;;
59040;SDS011;44825;53.200;6.448;2023-08-17T12:39:10;4.85;;;1.55;;
59040;SDS011;44825;53.200;6.448;2023-08-17T12:41:36;6.82;;;1.65;;
59040;SDS011;44825;53.200;6.448;2023-08-17T12:44:02;5.10;;;1.67;;
59040;SDS011;44825;53.200;6.448;2023-08-17T12:46:28;6.53;;;1.80;;
59040;SDS011;44825;53.200;6.448;2023-08-17T12:48:57;6.20;;;1.63;;
59040;SDS011;44825;53.200;6.448;2023-08-17T12:51:24;6.13;;;1.88;;
59040;SDS011;44825;53.200;6.448;2023-08-17T12:53:50;6.15;;;1.63;;
59040;SDS011;44825;53.200;6.448;2023-08-17T12:56:16;6.32;;;2.10;;
59040;SDS011;44825;53.200;6.448;2023-08-17T12:58:42;10.05;;;2.22;;
59040;SDS011;44825;53.200;6.448;2023-08-17T13:01:08;6.90;;;2.05;;
59040;SDS011;44825;53.200;6.448;2023-08-17T13:03:34;5.65;;;1.98;;
59040;SDS011;44825;53.200;6.448;2023-08-17T13:06:00;5.55;;;2.05;;
59040;SDS011;44825;53.200;6.448;2023-08-17T13:08:27;6.07;;;1.70;;
59040;SDS011;44825;53.200;6.448;2023-08-17T13:10:54;7.85;;;1.92;;
59040;SDS011;44825;53.200;6.448;2023-08-17T13:13:20;7.93;;;1.92;;
59040;SDS011;44825;53.200;6.448;2023-08-17T13:15:46;5.90;;;1.77;;
59040;SDS011;44825;53.200;6.448;2023-08-17T13:18:12;5.70;;;1.92;;
59040;SDS011;44825;53.200;6.448;2023-08-17T13:20:38;5.03;;;1.73;;
59040;SDS011;44825;53.200;6.448;2023-08-17T13:23:05;8.60;;;2.33;;
59040;SDS011;44825;53.200;6.448;2023-08-17T13:25:31;8.40;;;2.10;;
59040;SDS011;44825;53.200;6.448;2023-08-17T13:27:57;6.28;;;2.03;;
59040;SDS011;44825;53.200;6.448;2023-08-17T13:30:23;5.68;;;1.88;;
59040;SDS011;44825;53.200;6.448;2023-08-17T13:32:50;8.75;;;2.00;;
59040;SDS011;44825;53.200;6.448;2023-08-17T13:35:16;4.30;;;1.60;;
59040;SDS011;44825;53.200;6.448;2023-08-17T13:37:42;7.22;;;2.10;;
59040;SDS011;44825;53.200;6.448;2023-08-17T13:40:08;7.43;;;2.13;;
59040;SDS011;44825;53.200;6.448;2023-08-17T13:42:35;10.10;;;2.13;;
59040;SDS011;44825;53.200;6.448;2023-08-17T13:45:01;8.18;;;2.25;;
59040;SDS011;44825;53.200;6.448;2023-08-17T13:47:28;5.75;;;1.80;;
59040;SDS011;44825;53.200;6.448;2023-08-17T13:49:54;8.07;;;2.25;;
59040;SDS011;44825;53.200;6.448;2023-08-17T13:52:22;4.30;;;1.88;;
59040;SDS011;44825;53.200;6.448;2023-08-17T13:54:48;8.38;;;1.88;;
59040;SDS011;44825;53.200;6.448;2023-08-17T13:57:14;6.18;;;2.10;;
59040;SDS011;44825;53.200;6.448;2023-08-17T13:59:40;7.95;;;2.10;;
59040;SDS011;44825;53.200;6.448;2023-08-17T14:02:07;7.32;;;2.20;;
59040;SDS011;44825;53.200;6.448;2023-08-17T14:04:34;7.55;;;2.10;;
59040;SDS011;44825;53.200;6.448;2023-08-17T14:07:00;6.43;;;2.70;;
59040;SDS011;44825;53.200;6.448;2023-08-17T14:09:26;7.57;;;2.40;;
59040;SDS011;44825;53.200;6.448;2023-08-17T14:11:52;7.43;;;2.42;;
59040;SDS011;44825;53.200;6.448;2023-08-17T14:14:18;8.25;;;2.50;;
59040;SDS011;44825;53.200;6.448;2023-08-17T14:16:44;12.48;;;3.13;;
59040;SDS011;44825;53.200;6.448;2023-08-17T14:19:10;9.40;;;2.45;;
59040;SDS011;44825;53.200;6.448;2023-08-17T14:21:36;8.70;;;2.58;;
59040;SDS011;44825;53.200;6.448;2023-08-17T14:24:02;8.88;;;2.50;;
59040;SDS011;44825;53.200;6.448;2023-08-17T14:26:29;10.60;;;2.30;;
59040;SDS011;44825;53.200;6.448;2023-08-17T14:28:55;7.15;;;2.38;;
59040;SDS011;44825;53.200;6.448;2023-08-17T14:31:21;10.73;;;2.70;;
59040;SDS011;44825;53.200;6.448;2023-08-17T14:33:47;12.52;;;3.08;;
59040;SDS011;44825;53.200;6.448;2023-08-17T14:36:14;5.78;;;2.50;;
59040;SDS011;44825;53.200;6.448;2023-08-17T14:38:40;12.20;;;3.33;;
59040;SDS011;44825;53.200;6.448;2023-08-17T14:41:06;10.52;;;2.65;;
59040;SDS011;44825;53.200;6.448;2023-08-17T14:43:33;6.22;;;2.20;;
59040;SDS011;44825;53.200;6.448;2023-08-17T14:45:59;6.03;;;2.25;;
59040;SDS011;44825;53.200;6.448;2023-08-17T14:48:25;8.07;;;3.33;;
59040;SDS011;44825;53.200;6.448;2023-08-17T14:50:51;7.70;;;2.40;;
59040;SDS011;44825;53.200;6.448;2023-08-17T14:53:17;11.63;;;2.65;;
59040;SDS011;44825;53.200;6.448;2023-08-17T14:55:43;8.27;;;2.30;;
59040;SDS011;44825;53.200;6.448;2023-08-17T14:58:10;7.70;;;2.47;;
59040;SDS011;44825;53.200;6.448;2023-08-17T15:00:36;6.65;;;2.55;;
59040;SDS011;44825;53.200;6.448;2023-08-17T15:03:02;5.03;;;2.25;;